AFL1423 USCC-UUEE
Flight info
| Callsign | AFL1423 |
|---|---|
| Flight time | N/A |
| Altitude | 34000 |
| Route | BEDOT2F BEDOT L158 DIMGI DIMGI3F |
| Aircraft | A321/M-SDE3FGHIRWY/LB1 |
Departure
| Time | 2026-04-29 15:43 |
|---|---|
| Airport | Kurchatov Chelyabinsk International Airport (USCC) |
Arrival
| Time | N/A |
|---|---|
| Airport | Sheremetyevo International Airport (UUEE) |
| Time | Latitude | Longitude | Altitude | Speed | Heading |
|---|---|---|---|---|---|
| 2026-04-29 15:22 | 55.29885 | 61.51058 | 722 ft | 0 kts | 242° |
| 2026-04-29 15:33 | 55.29889 | 61.51072 | 749 ft | 4 kts | 239° |
| 2026-04-29 15:34 | 55.29905 | 61.51109 | 744 ft | 4 kts | 221° |
| 2026-04-29 15:34 | 55.29925 | 61.51131 | 745 ft | 4 kts | 182° |
| 2026-04-29 15:34 | 55.29943 | 61.51122 | 744 ft | 3 kts | 109° |
| 2026-04-29 15:34 | 55.29948 | 61.51087 | 745 ft | 4 kts | 100° |
| 2026-04-29 15:35 | 55.29951 | 61.51063 | 746 ft | 1 kts | 103° |
| 2026-04-29 15:37 | 55.29949 | 61.51075 | 746 ft | 2 kts | 103° |
| 2026-04-29 15:37 | 55.29943 | 61.51118 | 747 ft | 4 kts | 103° |
| 2026-04-29 15:37 | 55.29934 | 61.51184 | 747 ft | 6 kts | 103° |
| 2026-04-29 15:37 | 55.29924 | 61.51262 | 749 ft | 8 kts | 104° |
| 2026-04-29 15:38 | 55.29905 | 61.51389 | 745 ft | 11 kts | 104° |
| 2026-04-29 15:38 | 55.29896 | 61.51513 | 749 ft | 9 kts | 73° |
| 2026-04-29 15:38 | 55.29945 | 61.51563 | 747 ft | 8 kts | 17° |
| 2026-04-29 15:38 | 55.29981 | 61.51617 | 748 ft | 7 kts | 65° |
| 2026-04-29 15:39 | 55.29975 | 61.51712 | 747 ft | 10 kts | 105° |
| 2026-04-29 15:39 | 55.29954 | 61.51863 | 747 ft | 15 kts | 103° |
| 2026-04-29 15:39 | 55.29928 | 61.52051 | 749 ft | 15 kts | 104° |
| 2026-04-29 15:39 | 55.29905 | 61.52227 | 746 ft | 14 kts | 102° |
| 2026-04-29 15:40 | 55.29883 | 61.52389 | 749 ft | 13 kts | 103° |
| 2026-04-29 15:40 | 55.29903 | 61.52469 | 744 ft | 8 kts | 46° |
| 2026-04-29 15:40 | 55.29959 | 61.52570 | 749 ft | 13 kts | 45° |
| 2026-04-29 15:40 | 55.30023 | 61.52670 | 749 ft | 12 kts | 37° |
| 2026-04-29 15:41 | 55.30093 | 61.52719 | 747 ft | 10 kts | 15° |
| 2026-04-29 15:41 | 55.30160 | 61.52748 | 747 ft | 10 kts | 12° |
| 2026-04-29 15:41 | 55.30226 | 61.52773 | 744 ft | 8 kts | 12° |
| 2026-04-29 15:41 | 55.30245 | 61.52767 | 747 ft | 3 kts | 322° |
| 2026-04-29 15:42 | 55.30250 | 61.52733 | 743 ft | 2 kts | 282° |
| 2026-04-29 15:42 | 55.30293 | 61.52429 | 748 ft | 61 kts | 284° |
| 2026-04-29 15:42 | 55.30448 | 61.51322 | 751 ft | 123 kts | 282° |
| 2026-04-29 15:42 | 55.30689 | 61.49565 | 795 ft | 166 kts | 283° |
| 2026-04-29 15:43 | 55.30957 | 61.47686 | 1558 ft | 157 kts | 284° |
| 2026-04-29 15:43 | 55.31416 | 61.45942 | 2255 ft | 160 kts | 303° |
| 2026-04-29 15:43 | 55.31870 | 61.44932 | 2712 ft | 158 kts | 306° |
| 2026-04-29 15:43 | 55.32813 | 61.42940 | 3393 ft | 159 kts | 305° |
| 2026-04-29 15:44 | 55.33279 | 61.41943 | 3723 ft | 160 kts | 306° |
| 2026-04-29 15:44 | 55.33997 | 61.40387 | 4089 ft | 172 kts | 305° |
| 2026-04-29 15:44 | 55.34789 | 61.38643 | 4264 ft | 193 kts | 305° |
| 2026-04-29 15:44 | 55.35666 | 61.36698 | 4410 ft | 213 kts | 305° |
| 2026-04-29 15:45 | 55.36635 | 61.34534 | 4530 ft | 238 kts | 305° |
| 2026-04-29 15:45 | 55.37695 | 61.32156 | 4968 ft | 254 kts | 305° |
| 2026-04-29 15:45 | 55.38796 | 61.29690 | 5679 ft | 259 kts | 305° |
| 2026-04-29 15:45 | 55.39913 | 61.27184 | 6435 ft | 263 kts | 305° |
| 2026-04-29 15:46 | 55.40989 | 61.24572 | 7143 ft | 264 kts | 296° |
| 2026-04-29 15:46 | 55.41677 | 61.21597 | 7870 ft | 262 kts | 281° |
| 2026-04-29 15:46 | 55.41887 | 61.18431 | 8631 ft | 260 kts | 266° |
| 2026-04-29 15:46 | 55.41837 | 61.15230 | 9046 ft | 262 kts | 266° |
| 2026-04-29 15:47 | 55.41790 | 61.12028 | 9125 ft | 261 kts | 266° |
| 2026-04-29 15:47 | 55.41746 | 61.08846 | 9136 ft | 260 kts | 266° |
| 2026-04-29 15:47 | 55.41714 | 61.05663 | 9126 ft | 260 kts | 267° |
| 2026-04-29 15:47 | 55.41688 | 61.02488 | 9128 ft | 260 kts | 267° |
| 2026-04-29 15:48 | 55.41659 | 60.99309 | 9137 ft | 260 kts | 266° |
| 2026-04-29 15:48 | 55.41625 | 60.96133 | 9119 ft | 260 kts | 266° |
| 2026-04-29 15:48 | 55.41586 | 60.92950 | 9135 ft | 260 kts | 266° |
| 2026-04-29 15:48 | 55.41544 | 60.89776 | 9133 ft | 259 kts | 266° |
| 2026-04-29 15:49 | 55.41502 | 60.86602 | 9128 ft | 259 kts | 266° |
| 2026-04-29 15:49 | 55.41393 | 60.83441 | 9130 ft | 258 kts | 258° |
| 2026-04-29 15:49 | 55.40879 | 60.80409 | 9359 ft | 261 kts | 246° |
| 2026-04-29 15:49 | 55.40149 | 60.77494 | 10176 ft | 260 kts | 246° |
| 2026-04-29 15:50 | 55.39421 | 60.74511 | 10564 ft | 275 kts | 246° |
| 2026-04-29 15:50 | 55.38641 | 60.71291 | 10699 ft | 297 kts | 246° |
| 2026-04-29 15:50 | 55.37807 | 60.67847 | 10923 ft | 313 kts | 246° |
| 2026-04-29 15:50 | 55.36946 | 60.64301 | 11506 ft | 317 kts | 246° |
| 2026-04-29 15:51 | 55.36079 | 60.60740 | 12180 ft | 318 kts | 245° |
| 2026-04-29 15:51 | 55.35205 | 60.57164 | 12886 ft | 318 kts | 245° |
| 2026-04-29 15:51 | 55.34330 | 60.53593 | 13585 ft | 319 kts | 245° |
| 2026-04-29 15:51 | 55.33448 | 60.50008 | 14231 ft | 320 kts | 244° |
| 2026-04-29 15:52 | 55.32565 | 60.46425 | 14803 ft | 321 kts | 244° |
| 2026-04-29 15:52 | 55.31676 | 60.42822 | 15364 ft | 322 kts | 244° |
| 2026-04-29 15:52 | 55.30783 | 60.39212 | 15924 ft | 323 kts | 244° |
| 2026-04-29 15:52 | 55.29886 | 60.35587 | 16462 ft | 325 kts | 244° |
| 2026-04-29 15:53 | 55.28983 | 60.31950 | 17000 ft | 326 kts | 245° |
| 2026-04-29 15:53 | 55.28076 | 60.28297 | 17507 ft | 327 kts | 244° |
| 2026-04-29 15:53 | 55.27163 | 60.24632 | 18027 ft | 329 kts | 245° |
| 2026-04-29 15:53 | 55.26243 | 60.20949 | 18507 ft | 330 kts | 244° |
| 2026-04-29 15:54 | 55.25319 | 60.17253 | 18921 ft | 332 kts | 244° |
| 2026-04-29 15:54 | 55.24451 | 60.13501 | 19318 ft | 334 kts | 250° |
| 2026-04-29 15:54 | 55.23930 | 60.09511 | 19718 ft | 339 kts | 258° |
| 2026-04-29 15:54 | 55.23702 | 60.05385 | 20129 ft | 341 kts | 260° |
| 2026-04-29 15:55 | 55.23484 | 60.01246 | 20514 ft | 342 kts | 260° |
| 2026-04-29 15:55 | 55.23260 | 59.97099 | 20948 ft | 343 kts | 260° |
| 2026-04-29 15:55 | 55.23033 | 59.92935 | 21365 ft | 343 kts | 260° |
| 2026-04-29 15:55 | 55.22803 | 59.88759 | 21775 ft | 345 kts | 259° |
| 2026-04-29 15:56 | 55.22571 | 59.84573 | 22211 ft | 346 kts | 259° |
| 2026-04-29 15:56 | 55.22335 | 59.80371 | 22629 ft | 347 kts | 259° |
| 2026-04-29 15:56 | 55.22097 | 59.76155 | 23073 ft | 349 kts | 259° |
| 2026-04-29 15:56 | 55.21859 | 59.71922 | 23505 ft | 350 kts | 259° |
| 2026-04-29 15:57 | 55.21794 | 59.67627 | 23881 ft | 356 kts | 267° |
| 2026-04-29 15:57 | 55.21923 | 59.63289 | 24243 ft | 357 kts | 266° |
| 2026-04-29 15:57 | 55.22047 | 59.58991 | 24585 ft | 358 kts | 266° |
| 2026-04-29 15:57 | 55.22167 | 59.54622 | 24914 ft | 359 kts | 266° |
| 2026-04-29 15:58 | 55.22285 | 59.50235 | 25260 ft | 361 kts | 266° |
| 2026-04-29 15:58 | 55.22400 | 59.45843 | 25588 ft | 362 kts | 266° |
| 2026-04-29 15:58 | 55.22514 | 59.41441 | 25914 ft | 363 kts | 266° |
| 2026-04-29 15:58 | 55.22627 | 59.37019 | 26219 ft | 364 kts | 266° |
| 2026-04-29 15:59 | 55.22739 | 59.32578 | 26557 ft | 365 kts | 266° |
| 2026-04-29 15:59 | 55.22850 | 59.28136 | 26885 ft | 366 kts | 266° |
| 2026-04-29 15:59 | 55.22960 | 59.23666 | 27214 ft | 367 kts | 266° |
| 2026-04-29 15:59 | 55.23068 | 59.19192 | 27544 ft | 368 kts | 266° |
| 2026-04-29 16:00 | 55.23176 | 59.14696 | 27876 ft | 369 kts | 265° |
| 2026-04-29 16:00 | 55.23282 | 59.10189 | 28175 ft | 371 kts | 265° |
| 2026-04-29 16:00 | 55.23386 | 59.05676 | 28459 ft | 372 kts | 265° |
| 2026-04-29 16:00 | 55.23489 | 59.01146 | 28733 ft | 373 kts | 265° |
| 2026-04-29 16:01 | 55.23591 | 58.96606 | 28995 ft | 374 kts | 265° |
| 2026-04-29 16:01 | 55.23691 | 58.92054 | 29229 ft | 375 kts | 265° |
| 2026-04-29 16:01 | 55.23791 | 58.87483 | 29464 ft | 375 kts | 265° |
| 2026-04-29 16:01 | 55.23887 | 58.82971 | 29712 ft | 375 kts | 265° |
| 2026-04-29 16:02 | 55.23984 | 58.78414 | 30037 ft | 373 kts | 265° |
| 2026-04-29 16:02 | 55.24079 | 58.73873 | 30320 ft | 372 kts | 265° |
| 2026-04-29 16:02 | 55.24171 | 58.69349 | 30575 ft | 371 kts | 265° |
| 2026-04-29 16:02 | 55.24260 | 58.64831 | 30811 ft | 371 kts | 265° |
| 2026-04-29 16:03 | 55.24347 | 58.60316 | 31033 ft | 371 kts | 265° |
| 2026-04-29 16:03 | 55.24433 | 58.55794 | 31239 ft | 372 kts | 265° |
| 2026-04-29 16:03 | 55.24516 | 58.51262 | 31426 ft | 373 kts | 265° |
| 2026-04-29 16:03 | 55.24598 | 58.46723 | 31629 ft | 373 kts | 265° |
| 2026-04-29 16:04 | 55.24680 | 58.42179 | 31844 ft | 373 kts | 265° |
| 2026-04-29 16:04 | 55.24760 | 58.37630 | 32027 ft | 374 kts | 265° |
| 2026-04-29 16:04 | 55.24838 | 58.33073 | 32227 ft | 374 kts | 265° |
| 2026-04-29 16:04 | 55.24915 | 58.28504 | 32426 ft | 375 kts | 265° |
| 2026-04-29 16:05 | 55.24991 | 58.23874 | 32616 ft | 376 kts | 265° |
| 2026-04-29 16:05 | 55.25063 | 58.19295 | 32812 ft | 376 kts | 265° |
| 2026-04-29 16:05 | 55.25133 | 58.14713 | 33012 ft | 376 kts | 265° |
| 2026-04-29 16:05 | 55.25225 | 58.10114 | 33210 ft | 378 kts | 266° |
| 2026-04-29 16:06 | 55.25424 | 58.05575 | 33413 ft | 380 kts | 268° |
| 2026-04-29 16:06 | 55.25709 | 58.00951 | 33612 ft | 382 kts | 269° |
| 2026-04-29 16:06 | 55.26030 | 57.96326 | 33787 ft | 383 kts | 269° |
| 2026-04-29 16:06 | 55.26354 | 57.91697 | 33977 ft | 383 kts | 269° |
| 2026-04-29 16:07 | 55.26666 | 57.87059 | 34115 ft | 382 kts | 269° |
| 2026-04-29 16:07 | 55.27236 | 57.77854 | 34138 ft | 378 kts | 268° |
| 2026-04-29 16:08 | 55.27760 | 57.68682 | 34140 ft | 377 kts | 268° |
| 2026-04-29 16:08 | 55.28274 | 57.59513 | 34141 ft | 378 kts | 268° |
| 2026-04-29 16:09 | 55.28790 | 57.50340 | 34142 ft | 378 kts | 268° |
| 2026-04-29 16:09 | 55.29300 | 57.41197 | 34142 ft | 379 kts | 268° |
| 2026-04-29 16:10 | 55.29810 | 57.31950 | 34144 ft | 379 kts | 268° |
| 2026-04-29 16:10 | 55.30307 | 57.22747 | 34141 ft | 379 kts | 268° |
| 2026-04-29 16:11 | 55.30795 | 57.13574 | 34141 ft | 379 kts | 268° |
| 2026-04-29 16:11 | 55.31287 | 57.04339 | 34137 ft | 380 kts | 268° |
| 2026-04-29 16:12 | 55.31771 | 56.95097 | 34140 ft | 380 kts | 268° |
| 2026-04-29 16:12 | 55.32248 | 56.85834 | 34133 ft | 381 kts | 268° |
| 2026-04-29 16:13 | 55.32718 | 56.76554 | 34134 ft | 382 kts | 268° |
| 2026-04-29 16:13 | 55.33182 | 56.67254 | 34133 ft | 382 kts | 268° |
| 2026-04-29 16:14 | 55.33639 | 56.57946 | 34134 ft | 383 kts | 268° |
| 2026-04-29 16:14 | 55.34090 | 56.48606 | 34133 ft | 384 kts | 268° |
| 2026-04-29 16:15 | 55.34535 | 56.39252 | 34140 ft | 384 kts | 267° |
| 2026-04-29 16:15 | 55.34974 | 56.29890 | 34134 ft | 385 kts | 267° |
| 2026-04-29 16:16 | 55.35403 | 56.20567 | 34138 ft | 385 kts | 267° |
| 2026-04-29 16:16 | 55.35828 | 56.11166 | 34134 ft | 386 kts | 267° |
| 2026-04-29 16:17 | 55.36247 | 56.01752 | 34137 ft | 386 kts | 267° |
| 2026-04-29 16:17 | 55.36659 | 55.92327 | 34136 ft | 387 kts | 267° |
| 2026-04-29 16:18 | 55.37065 | 55.82886 | 34139 ft | 387 kts | 267° |
| 2026-04-29 16:18 | 55.37463 | 55.73445 | 34135 ft | 388 kts | 267° |
| 2026-04-29 16:19 | 55.37855 | 55.63968 | 34137 ft | 388 kts | 267° |
| 2026-04-29 16:19 | 55.38239 | 55.54494 | 34137 ft | 389 kts | 266° |
| 2026-04-29 16:20 | 55.38617 | 55.44996 | 34121 ft | 389 kts | 266° |
| 2026-04-29 16:20 | 55.38985 | 55.35550 | 34125 ft | 390 kts | 266° |
| 2026-04-29 16:21 | 55.39346 | 55.26019 | 34132 ft | 391 kts | 266° |
| 2026-04-29 16:21 | 55.39609 | 55.16481 | 34125 ft | 390 kts | 265° |
| 2026-04-29 16:22 | 55.39742 | 55.06953 | 34120 ft | 390 kts | 264° |
| 2026-04-29 16:22 | 55.39864 | 54.97388 | 34123 ft | 392 kts | 264° |
| 2026-04-29 16:23 | 55.40005 | 54.87784 | 34126 ft | 393 kts | 264° |
| 2026-04-29 16:23 | 55.40150 | 54.78167 | 34122 ft | 394 kts | 264° |
| 2026-04-29 16:24 | 55.40292 | 54.68514 | 34120 ft | 395 kts | 264° |
| 2026-04-29 16:24 | 55.40425 | 54.58861 | 34120 ft | 395 kts | 264° |
| 2026-04-29 16:25 | 55.40546 | 54.49172 | 34114 ft | 396 kts | 264° |
| 2026-04-29 16:25 | 55.40655 | 54.39528 | 34119 ft | 396 kts | 264° |
| 2026-04-29 16:26 | 55.40689 | 54.29762 | 34120 ft | 397 kts | 263° |
| 2026-04-29 16:26 | 55.40750 | 54.20096 | 34110 ft | 398 kts | 264° |
| 2026-04-29 16:27 | 55.40846 | 54.10341 | 34116 ft | 399 kts | 264° |
| 2026-04-29 16:27 | 55.40969 | 54.02225 | 34111 ft | 400 kts | 264° |
| 2026-04-29 16:28 | 55.41108 | 53.92433 | 34115 ft | 400 kts | 264° |
| 2026-04-29 16:28 | 55.41194 | 53.82626 | 34114 ft | 401 kts | 264° |
| 2026-04-29 16:29 | 55.41250 | 53.72801 | 34119 ft | 401 kts | 264° |
| 2026-04-29 16:29 | 55.41301 | 53.62964 | 34114 ft | 402 kts | 263° |
| 2026-04-29 16:30 | 55.41349 | 53.53128 | 34121 ft | 402 kts | 264° |
| 2026-04-29 16:30 | 55.41387 | 53.43262 | 34106 ft | 403 kts | 263° |
| 2026-04-29 16:31 | 55.41421 | 53.33387 | 34108 ft | 404 kts | 263° |
| 2026-04-29 16:31 | 55.41452 | 53.23489 | 34107 ft | 404 kts | 263° |
| 2026-04-29 16:32 | 55.41473 | 53.13595 | 34108 ft | 405 kts | 263° |
| 2026-04-29 16:32 | 55.41484 | 53.03725 | 34106 ft | 406 kts | 263° |
| 2026-04-29 16:33 | 55.41486 | 52.88823 | 34109 ft | 406 kts | 263° |
| 2026-04-29 16:33 | 55.41475 | 52.78868 | 34114 ft | 406 kts | 263° |
| 2026-04-29 16:34 | 55.41456 | 52.68920 | 34109 ft | 407 kts | 263° |
| 2026-04-29 16:34 | 55.41433 | 52.58957 | 34108 ft | 407 kts | 263° |
| 2026-04-29 16:35 | 55.41401 | 52.49001 | 34107 ft | 407 kts | 262° |
| 2026-04-29 16:35 | 55.41360 | 52.39043 | 34105 ft | 407 kts | 262° |
| 2026-04-29 16:36 | 55.41309 | 52.29084 | 34100 ft | 407 kts | 262° |
| 2026-04-29 16:36 | 55.41251 | 52.19194 | 34101 ft | 407 kts | 262° |
| 2026-04-29 16:37 | 55.41185 | 52.09223 | 34119 ft | 407 kts | 262° |
| 2026-04-29 16:37 | 55.41124 | 52.00884 | 34119 ft | 408 kts | 262° |
| 2026-04-29 16:38 | 55.41028 | 51.89272 | 34109 ft | 408 kts | 262° |
| 2026-04-29 16:38 | 55.40938 | 51.79268 | 34110 ft | 409 kts | 262° |
| 2026-04-29 16:39 | 55.40839 | 51.69251 | 34105 ft | 409 kts | 261° |
| 2026-04-29 16:39 | 55.40731 | 51.59224 | 34105 ft | 410 kts | 261° |
| 2026-04-29 16:40 | 55.40616 | 51.49184 | 34098 ft | 411 kts | 261° |
| 2026-04-29 16:40 | 55.40492 | 51.39141 | 34101 ft | 411 kts | 261° |
| 2026-04-29 16:41 | 55.40360 | 51.29081 | 34094 ft | 411 kts | 261° |
| 2026-04-29 16:41 | 55.40217 | 51.19019 | 34096 ft | 411 kts | 261° |
| 2026-04-29 16:42 | 55.40070 | 51.08949 | 34094 ft | 412 kts | 261° |
| 2026-04-29 16:42 | 55.40014 | 50.98833 | 34097 ft | 414 kts | 262° |
| 2026-04-29 16:43 | 55.39998 | 50.88782 | 34096 ft | 414 kts | 262° |
| 2026-04-29 16:43 | 55.39957 | 50.78642 | 34088 ft | 414 kts | 262° |
| 2026-04-29 16:44 | 55.39888 | 50.68498 | 34093 ft | 415 kts | 261° |
| 2026-04-29 16:44 | 55.39793 | 50.58335 | 34096 ft | 415 kts | 261° |
| 2026-04-29 16:45 | 55.39678 | 50.48155 | 34090 ft | 416 kts | 261° |
| 2026-04-29 16:45 | 55.39577 | 50.37962 | 34082 ft | 417 kts | 261° |
| 2026-04-29 16:46 | 55.39489 | 50.27736 | 34081 ft | 419 kts | 262° |
| 2026-04-29 16:46 | 55.39397 | 50.17474 | 34078 ft | 420 kts | 262° |
| 2026-04-29 16:47 | 55.39229 | 50.07207 | 34078 ft | 420 kts | 261° |
| 2026-04-29 16:47 | 55.39046 | 49.96907 | 34072 ft | 425 kts | 265° |
| 2026-04-29 16:48 | 55.39535 | 49.86465 | 34071 ft | 429 kts | 268° |
| 2026-04-29 16:48 | 55.39680 | 49.83661 | 34071 ft | 430 kts | 268° |
| 2026-04-29 17:04 | 55.39723 | 49.82781 | 34131 ft | 426 kts | 261° |
| 2026-04-29 17:04 | 55.40218 | 49.72277 | 34079 ft | 435 kts | 265° |
| 2026-04-29 17:05 | 55.40769 | 49.61645 | 34086 ft | 438 kts | 267° |
| 2026-04-29 17:05 | 55.41054 | 49.56308 | 33742 ft | 436 kts | 267° |
| 2026-04-29 17:05 | 55.41330 | 49.50999 | 33002 ft | 436 kts | 266° |
| 2026-04-29 17:06 | 55.41595 | 49.45688 | 32182 ft | 432 kts | 266° |
| 2026-04-29 17:06 | 55.41847 | 49.40436 | 30844 ft | 430 kts | 265° |
| 2026-04-29 17:06 | 55.42053 | 49.35247 | 29586 ft | 421 kts | 262° |
| 2026-04-29 17:06 | 55.42109 | 49.30118 | 28104 ft | 415 kts | 260° |
| 2026-04-29 17:07 | 55.42130 | 49.25077 | 26831 ft | 409 kts | 260° |
| 2026-04-29 17:07 | 55.42168 | 49.21786 | 26042 ft | 404 kts | 261° |
| 2026-04-29 17:07 | 55.42335 | 49.15232 | 24507 ft | 397 kts | 262° |
| 2026-04-29 17:07 | 55.42526 | 49.10426 | 23363 ft | 391 kts | 263° |
| 2026-04-29 17:08 | 55.42744 | 49.05653 | 21515 ft | 393 kts | 265° |
| 2026-04-29 17:08 | 55.42970 | 49.00828 | 19674 ft | 397 kts | 268° |
| 2026-04-29 17:08 | 55.43224 | 48.96038 | 17973 ft | 398 kts | 270° |
| 2026-04-29 17:08 | 55.43492 | 48.91227 | 16323 ft | 390 kts | 270° |
| 2026-04-29 17:09 | 55.43742 | 48.86524 | 14809 ft | 381 kts | 270° |
| 2026-04-29 17:09 | 55.43964 | 48.81921 | 13276 ft | 374 kts | 270° |
| 2026-04-29 17:09 | 55.44161 | 48.77426 | 11833 ft | 363 kts | 270° |
| 2026-04-29 17:09 | 55.44339 | 48.73013 | 10766 ft | 361 kts | 270° |
| 2026-04-29 17:10 | 55.44507 | 48.68627 | 10341 ft | 356 kts | 270° |